sensor_id;sensor_type;location;lat;lon;timestamp;P1;durP1;ratioP1;P2;durP2;ratioP2
1122;SDS011;548;48.778;9.252;2022-09-03T03:04:07;13.13;;;12.30;;
1122;SDS011;548;48.778;9.252;2022-09-03T03:06:33;12.03;;;11.53;;
1122;SDS011;548;48.778;9.252;2022-09-03T03:09:00;12.10;;;11.60;;
1122;SDS011;548;48.778;9.252;2022-09-03T03:11:29;12.23;;;11.63;;
1122;SDS011;548;48.778;9.252;2022-09-03T03:13:57;13.27;;;12.60;;
1122;SDS011;548;48.778;9.252;2022-09-03T03:16:23;12.67;;;12.17;;
1122;SDS011;548;48.778;9.252;2022-09-03T03:18:50;11.77;;;11.27;;
1122;SDS011;548;48.778;9.252;2022-09-03T03:21:19;13.47;;;12.93;;
1122;SDS011;548;48.778;9.252;2022-09-03T03:23:45;12.30;;;11.60;;
1122;SDS011;548;48.778;9.252;2022-09-03T03:26:13;12.37;;;11.87;;
1122;SDS011;548;48.778;9.252;2022-09-03T03:28:42;13.53;;;12.93;;
1122;SDS011;548;48.778;9.252;2022-09-03T03:31:11;12.00;;;11.40;;
1122;SDS011;548;48.778;9.252;2022-09-03T03:33:39;12.13;;;11.50;;
1122;SDS011;548;48.778;9.252;2022-09-03T03:36:08;12.80;;;12.20;;
1122;SDS011;548;48.778;9.252;2022-09-03T03:38:37;12.40;;;11.90;;
1122;SDS011;548;48.778;9.252;2022-09-03T03:41:07;13.00;;;12.40;;
1122;SDS011;548;48.778;9.252;2022-09-03T03:43:35;13.10;;;12.50;;
1122;SDS011;548;48.778;9.252;2022-09-03T03:46:02;12.47;;;11.77;;
1122;SDS011;548;48.778;9.252;2022-09-03T03:48:29;12.87;;;12.33;;
1122;SDS011;548;48.778;9.252;2022-09-03T03:50:58;12.33;;;11.83;;
1122;SDS011;548;48.778;9.252;2022-09-03T03:53:26;12.87;;;12.37;;
1122;SDS011;548;48.778;9.252;2022-09-03T03:55:54;12.80;;;12.10;;
1122;SDS011;548;48.778;9.252;2022-09-03T03:58:22;12.47;;;11.97;;
1122;SDS011;548;48.778;9.252;2022-09-03T04:00:49;12.47;;;11.97;;
1122;SDS011;548;48.778;9.252;2022-09-03T04:03:15;12.80;;;12.30;;
1122;SDS011;548;48.778;9.252;2022-09-03T04:05:42;13.10;;;12.40;;
1122;SDS011;548;48.778;9.252;2022-09-03T04:08:09;12.00;;;11.60;;
1122;SDS011;548;48.778;9.252;2022-09-03T04:10:37;12.73;;;12.03;;
1122;SDS011;548;48.778;9.252;2022-09-03T04:13:05;11.73;;;11.23;;
1122;SDS011;548;48.778;9.252;2022-09-03T04:15:31;13.00;;;11.83;;
1122;SDS011;548;48.778;9.252;2022-09-03T04:17:58;12.47;;;11.97;;
1122;SDS011;548;48.778;9.252;2022-09-03T04:20:25;12.33;;;11.83;;
1122;SDS011;548;48.778;9.252;2022-09-03T04:22:52;12.23;;;11.80;;
1122;SDS011;548;48.778;9.252;2022-09-03T04:25:18;12.80;;;12.13;;
1122;SDS011;548;48.778;9.252;2022-09-03T04:27:45;12.70;;;12.10;;
1122;SDS011;548;48.778;9.252;2022-09-03T04:30:13;12.60;;;11.77;;
1122;SDS011;548;48.778;9.252;2022-09-03T04:32:40;12.87;;;12.27;;
1122;SDS011;548;48.778;9.252;2022-09-03T04:35:20;13.77;;;13.07;;
1122;SDS011;548;48.778;9.252;2022-09-03T04:37:48;13.10;;;12.50;;
1122;SDS011;548;48.778;9.252;2022-09-03T04:40:15;13.50;;;12.90;;
1122;SDS011;548;48.778;9.252;2022-09-03T04:42:42;12.70;;;12.10;;
1122;SDS011;548;48.778;9.252;2022-09-03T04:45:09;13.23;;;12.43;;
1122;SDS011;548;48.778;9.252;2022-09-03T04:47:41;12.57;;;11.87;;
1122;SDS011;548;48.778;9.252;2022-09-03T04:50:08;11.80;;;11.30;;
1122;SDS011;548;48.778;9.252;2022-09-03T04:52:36;12.43;;;11.73;;
1122;SDS011;548;48.778;9.252;2022-09-03T04:55:03;12.70;;;11.87;;
1122;SDS011;548;48.778;9.252;2022-09-03T04:57:32;12.20;;;11.67;;
1122;SDS011;548;48.778;9.252;2022-09-03T05:00:02;12.63;;;11.80;;
1122;SDS011;548;48.778;9.252;2022-09-03T05:02:30;13.07;;;12.40;;
1122;SDS011;548;48.778;9.252;2022-09-03T05:04:58;12.83;;;12.23;;
1122;SDS011;548;48.778;9.252;2022-09-03T05:07:24;11.83;;;11.23;;
1122;SDS011;548;48.778;9.252;2022-09-03T05:09:52;12.10;;;11.60;;
1122;SDS011;548;48.778;9.252;2022-09-03T05:12:19;13.33;;;12.63;;
1122;SDS011;548;48.778;9.252;2022-09-03T05:14:47;11.43;;;10.70;;
1122;SDS011;548;48.778;9.252;2022-09-03T05:17:14;10.93;;;10.53;;
1122;SDS011;548;48.778;9.252;2022-09-03T05:19:40;13.60;;;12.90;;
1122;SDS011;548;48.778;9.252;2022-09-03T05:22:08;12.60;;;12.10;;
1122;SDS011;548;48.778;9.252;2022-09-03T05:24:35;12.93;;;12.30;;
1122;SDS011;548;48.778;9.252;2022-09-03T05:27:02;12.90;;;12.33;;
1122;SDS011;548;48.778;9.252;2022-09-03T05:29:29;13.23;;;12.63;;
1122;SDS011;548;48.778;9.252;2022-09-03T05:31:56;15.10;;;14.20;;
1122;SDS011;548;48.778;9.252;2022-09-03T05:34:22;11.80;;;11.30;;
1122;SDS011;548;48.778;9.252;2022-09-03T05:36:49;10.97;;;10.47;;
1122;SDS011;548;48.778;9.252;2022-09-03T05:39:18;12.70;;;12.10;;
1122;SDS011;548;48.778;9.252;2022-09-03T05:41:45;13.00;;;12.20;;
1122;SDS011;548;48.778;9.252;2022-09-03T05:44:14;13.37;;;12.77;;
1122;SDS011;548;48.778;9.252;2022-09-03T05:46:41;12.53;;;11.90;;
1122;SDS011;548;48.778;9.252;2022-09-03T05:49:07;13.80;;;13.10;;
1122;SDS011;548;48.778;9.252;2022-09-03T05:51:36;12.33;;;11.83;;
1122;SDS011;548;48.778;9.252;2022-09-03T05:54:04;11.57;;;11.07;;
1122;SDS011;548;48.778;9.252;2022-09-03T05:56:34;13.67;;;12.83;;
1122;SDS011;548;48.778;9.252;2022-09-03T05:59:02;13.87;;;13.10;;
1122;SDS011;548;48.778;9.252;2022-09-03T06:01:33;12.97;;;12.27;;
1122;SDS011;548;48.778;9.252;2022-09-03T06:04:02;13.03;;;12.20;;
1122;SDS011;548;48.778;9.252;2022-09-03T06:06:31;13.43;;;12.80;;
1122;SDS011;548;48.778;9.252;2022-09-03T06:09:00;11.40;;;10.90;;
1122;SDS011;548;48.778;9.252;2022-09-03T06:11:28;13.00;;;12.20;;
1122;SDS011;548;48.778;9.252;2022-09-03T06:13:58;11.43;;;10.83;;
1122;SDS011;548;48.778;9.252;2022-09-03T06:16:26;13.70;;;12.90;;
1122;SDS011;548;48.778;9.252;2022-09-03T06:18:53;14.10;;;12.97;;
1122;SDS011;548;48.778;9.252;2022-09-03T06:21:20;13.60;;;12.70;;
1122;SDS011;548;48.778;9.252;2022-09-03T06:23:48;13.07;;;12.57;;
1122;SDS011;548;48.778;9.252;2022-09-03T06:26:15;13.10;;;12.57;;
1122;SDS011;548;48.778;9.252;2022-09-03T06:28:42;14.00;;;13.13;;
1122;SDS011;548;48.778;9.252;2022-09-03T06:31:11;13.43;;;12.83;;
1122;SDS011;548;48.778;9.252;2022-09-03T06:33:40;12.17;;;11.57;;
1122;SDS011;548;48.778;9.252;2022-09-03T06:36:08;13.33;;;12.73;;
1122;SDS011;548;48.778;9.252;2022-09-03T06:38:37;13.20;;;12.47;;
1122;SDS011;548;48.778;9.252;2022-09-03T06:41:05;13.50;;;12.90;;
1122;SDS011;548;48.778;9.252;2022-09-03T06:43:34;13.60;;;12.90;;
1122;SDS011;548;48.778;9.252;2022-09-03T06:46:03;13.73;;;13.00;;
1122;SDS011;548;48.778;9.252;2022-09-03T06:48:34;13.20;;;12.30;;
1122;SDS011;548;48.778;9.252;2022-09-03T06:51:02;12.93;;;11.80;;
1122;SDS011;548;48.778;9.252;2022-09-03T06:53:31;12.97;;;12.27;;
1122;SDS011;548;48.778;9.252;2022-09-03T06:55:59;12.33;;;11.63;;
1122;SDS011;548;48.778;9.252;2022-09-03T06:58:27;13.20;;;12.50;;
1122;SDS011;548;48.778;9.252;2022-09-03T07:00:59;13.40;;;12.90;;
1122;SDS011;548;48.778;9.252;2022-09-03T07:03:26;12.20;;;11.80;;
1122;SDS011;548;48.778;9.252;2022-09-03T07:05:54;13.60;;;12.93;;
1122;SDS011;548;48.778;9.252;2022-09-03T07:08:25;12.73;;;12.07;;
1122;SDS011;548;48.778;9.252;2022-09-03T07:10:52;13.60;;;12.73;;
1122;SDS011;548;48.778;9.252;2022-09-03T07:13:18;13.20;;;12.60;;
1122;SDS011;548;48.778;9.252;2022-09-03T07:15:45;12.90;;;12.30;;
1122;SDS011;548;48.778;9.252;2022-09-03T07:18:12;13.00;;;12.30;;
1122;SDS011;548;48.778;9.252;2022-09-03T07:20:39;13.70;;;13.00;;
1122;SDS011;548;48.778;9.252;2022-09-03T07:23:07;13.43;;;12.73;;
1122;SDS011;548;48.778;9.252;2022-09-03T07:25:34;13.13;;;12.40;;
1122;SDS011;548;48.778;9.252;2022-09-03T07:28:04;13.50;;;12.60;;
1122;SDS011;548;48.778;9.252;2022-09-03T07:30:31;12.07;;;11.50;;
1122;SDS011;548;48.778;9.252;2022-09-03T07:32:57;13.10;;;12.50;;
1122;SDS011;548;48.778;9.252;2022-09-03T07:35:27;12.97;;;12.37;;
1122;SDS011;548;48.778;9.252;2022-09-03T07:37:54;12.37;;;11.77;;
1122;SDS011;548;48.778;9.252;2022-09-03T07:40:22;14.13;;;13.33;;
1122;SDS011;548;48.778;9.252;2022-09-03T07:42:48;13.20;;;12.50;;
1122;SDS011;548;48.778;9.252;2022-09-03T07:45:15;12.53;;;12.03;;
1122;SDS011;548;48.778;9.252;2022-09-03T07:47:45;13.63;;;12.90;;
1122;SDS011;548;48.778;9.252;2022-09-03T07:50:13;12.93;;;12.40;;
1122;SDS011;548;48.778;9.252;2022-09-03T07:52:40;13.30;;;12.80;;
1122;SDS011;548;48.778;9.252;2022-09-03T07:55:07;13.17;;;12.37;;
1122;SDS011;548;48.778;9.252;2022-09-03T07:57:36;12.90;;;12.40;;
1122;SDS011;548;48.778;9.252;2022-09-03T08:00:03;13.50;;;12.77;;
1122;SDS011;548;48.778;9.252;2022-09-03T08:02:31;13.67;;;13.07;;
1122;SDS011;548;48.778;9.252;2022-09-03T08:04:58;14.43;;;13.57;;
1122;SDS011;548;48.778;9.252;2022-09-03T08:07:25;14.40;;;13.50;;
1122;SDS011;548;48.778;9.252;2022-09-03T08:09:53;13.87;;;13.27;;
1122;SDS011;548;48.778;9.252;2022-09-03T08:12:20;13.30;;;12.70;;
1122;SDS011;548;48.778;9.252;2022-09-03T08:14:48;13.03;;;12.53;;
1122;SDS011;548;48.778;9.252;2022-09-03T08:17:15;13.33;;;12.73;;
1122;SDS011;548;48.778;9.252;2022-09-03T08:19:41;12.37;;;11.97;;
1122;SDS011;548;48.778;9.252;2022-09-03T08:22:10;12.50;;;11.90;;
1122;SDS011;548;48.778;9.252;2022-09-03T08:24:36;13.10;;;12.50;;
1122;SDS011;548;48.778;9.252;2022-09-03T08:27:03;13.03;;;12.53;;
1122;SDS011;548;48.778;9.252;2022-09-03T08:29:30;12.57;;;11.97;;
1122;SDS011;548;48.778;9.252;2022-09-03T08:31:58;13.20;;;12.70;;
1122;SDS011;548;48.778;9.252;2022-09-03T08:34:25;12.73;;;12.17;;
1122;SDS011;548;48.778;9.252;2022-09-03T08:36:51;13.57;;;12.97;;
1122;SDS011;548;48.778;9.252;2022-09-03T08:39:18;13.40;;;12.80;;
1122;SDS011;548;48.778;9.252;2022-09-03T08:44:40;13.40;;;12.70;;
1122;SDS011;548;48.778;9.252;2022-09-03T08:47:14;13.73;;;13.00;;
1122;SDS011;548;48.778;9.252;2022-09-03T08:49:44;13.07;;;12.50;;
1122;SDS011;548;48.778;9.252;2022-09-03T08:52:20;13.27;;;12.67;;
1122;SDS011;548;48.778;9.252;2022-09-03T08:54:51;13.00;;;12.50;;
1122;SDS011;548;48.778;9.252;2022-09-03T08:57:23;14.27;;;13.20;;
1122;SDS011;548;48.778;9.252;2022-09-03T08:59:52;13.03;;;12.53;;
1122;SDS011;548;48.778;9.252;2022-09-03T09:02:24;13.20;;;12.60;;
1122;SDS011;548;48.778;9.252;2022-09-03T09:04:59;14.77;;;14.07;;
1122;SDS011;548;48.778;9.252;2022-09-03T09:07:31;13.87;;;13.27;;
1122;SDS011;548;48.778;9.252;2022-09-03T09:10:08;13.90;;;13.30;;
1122;SDS011;548;48.778;9.252;2022-09-03T09:12:40;13.70;;;13.00;;
1122;SDS011;548;48.778;9.252;2022-09-03T09:15:15;13.13;;;12.40;;
1122;SDS011;548;48.778;9.252;2022-09-03T09:17:56;13.77;;;13.17;;
1122;SDS011;548;48.778;9.252;2022-09-03T09:20:32;14.60;;;14.00;;
1122;SDS011;548;48.778;9.252;2022-09-03T09:23:07;14.20;;;13.57;;
1122;SDS011;548;48.778;9.252;2022-09-03T09:25:40;15.80;;;14.70;;
1122;SDS011;548;48.778;9.252;2022-09-03T09:28:12;13.77;;;13.17;;
1122;SDS011;548;48.778;9.252;2022-09-03T09:30:43;13.77;;;13.07;;
1122;SDS011;548;48.778;9.252;2022-09-03T09:33:13;14.00;;;13.50;;
1122;SDS011;548;48.778;9.252;2022-09-03T09:35:40;14.30;;;13.70;;
1122;SDS011;548;48.778;9.252;2022-09-03T09:38:07;14.90;;;14.20;;
1122;SDS011;548;48.778;9.252;2022-09-03T09:40:35;14.43;;;13.63;;
1122;SDS011;548;48.778;9.252;2022-09-03T09:43:03;15.27;;;14.37;;
1122;SDS011;548;48.778;9.252;2022-09-03T09:45:35;13.80;;;13.20;;
1122;SDS011;548;48.778;9.252;2022-09-03T09:48:06;15.47;;;14.57;;
1122;SDS011;548;48.778;9.252;2022-09-03T09:50:36;15.20;;;14.43;;
1122;SDS011;548;48.778;9.252;2022-09-03T09:53:06;14.70;;;14.10;;
1122;SDS011;548;48.778;9.252;2022-09-03T09:55:48;14.40;;;13.80;;
1122;SDS011;548;48.778;9.252;2022-09-03T09:58:17;15.00;;;14.40;;
1122;SDS011;548;48.778;9.252;2022-09-03T10:00:53;14.90;;;14.30;;
1122;SDS011;548;48.778;9.252;2022-09-03T10:03:21;15.90;;;15.30;;
1122;SDS011;548;48.778;9.252;2022-09-03T10:05:57;15.90;;;14.87;;
1122;SDS011;548;48.778;9.252;2022-09-03T10:08:47;14.70;;;14.00;;
1122;SDS011;548;48.778;9.252;2022-09-03T10:11:14;15.63;;;14.93;;
1122;SDS011;548;48.778;9.252;2022-09-03T10:13:44;15.60;;;14.77;;
1122;SDS011;548;48.778;9.252;2022-09-03T10:16:15;14.97;;;14.37;;
1122;SDS011;548;48.778;9.252;2022-09-03T10:18:48;15.60;;;15.00;;
1122;SDS011;548;48.778;9.252;2022-09-03T10:21:22;15.13;;;14.50;;
1122;SDS011;548;48.778;9.252;2022-09-03T10:23:56;14.13;;;13.53;;
1122;SDS011;548;48.778;9.252;2022-09-03T10:26:30;15.83;;;15.03;;
1122;SDS011;548;48.778;9.252;2022-09-03T10:28:58;13.00;;;12.50;;
1122;SDS011;548;48.778;9.252;2022-09-03T10:31:30;14.20;;;13.60;;
1122;SDS011;548;48.778;9.252;2022-09-03T10:34:08;14.80;;;14.20;;
1122;SDS011;548;48.778;9.252;2022-09-03T10:36:44;15.20;;;14.50;;
1122;SDS011;548;48.778;9.252;2022-09-03T10:39:20;15.07;;;14.47;;
1122;SDS011;548;48.778;9.252;2022-09-03T10:41:51;15.00;;;14.40;;
1122;SDS011;548;48.778;9.252;2022-09-03T10:44:34;15.63;;;14.97;;
1122;SDS011;548;48.778;9.252;2022-09-03T10:47:15;13.30;;;12.80;;
1122;SDS011;548;48.778;9.252;2022-09-03T10:49:56;14.90;;;14.00;;
1122;SDS011;548;48.778;9.252;2022-09-03T10:52:30;14.43;;;13.93;;
1122;SDS011;548;48.778;9.252;2022-09-03T10:55:12;14.60;;;14.00;;
1122;SDS011;548;48.778;9.252;2022-09-03T10:57:45;14.77;;;14.17;;
1122;SDS011;548;48.778;9.252;2022-09-03T11:00:16;16.03;;;15.33;;
1122;SDS011;548;48.778;9.252;2022-09-03T11:03:10;14.87;;;14.07;;
1122;SDS011;548;48.778;9.252;2022-09-03T11:05:55;14.83;;;14.20;;
1122;SDS011;548;48.778;9.252;2022-09-03T11:08:30;14.83;;;14.13;;
1122;SDS011;548;48.778;9.252;2022-09-03T11:11:05;14.70;;;14.00;;
1122;SDS011;548;48.778;9.252;2022-09-03T11:13:37;14.20;;;13.60;;
1122;SDS011;548;48.778;9.252;2022-09-03T11:16:10;14.23;;;13.63;;
1122;SDS011;548;48.778;9.252;2022-09-03T11:18:46;13.67;;;12.97;;
1122;SDS011;548;48.778;9.252;2022-09-03T11:21:15;14.43;;;13.90;;
1122;SDS011;548;48.778;9.252;2022-09-03T11:23:47;13.73;;;13.17;;
1122;SDS011;548;48.778;9.252;2022-09-03T11:26:18;14.00;;;13.40;;
1122;SDS011;548;48.778;9.252;2022-09-03T11:28:50;14.10;;;13.43;;
1122;SDS011;548;48.778;9.252;2022-09-03T11:31:24;12.90;;;12.40;;
1122;SDS011;548;48.778;9.252;2022-09-03T11:33:58;14.60;;;13.80;;
1122;SDS011;548;48.778;9.252;2022-09-03T11:36:31;14.30;;;13.60;;
1122;SDS011;548;48.778;9.252;2022-09-03T11:39:01;14.50;;;13.80;;
1122;SDS011;548;48.778;9.252;2022-09-03T11:41:40;14.13;;;13.50;;
1122;SDS011;548;48.778;9.252;2022-09-03T11:44:11;14.70;;;14.00;;
1122;SDS011;548;48.778;9.252;2022-09-03T11:46:51;14.00;;;13.40;;
1122;SDS011;548;48.778;9.252;2022-09-03T11:49:24;13.70;;;13.10;;
1122;SDS011;548;48.778;9.252;2022-09-03T11:51:55;14.10;;;13.10;;
1122;SDS011;548;48.778;9.252;2022-09-03T11:54:30;14.00;;;13.17;;
1122;SDS011;548;48.778;9.252;2022-09-03T11:57:08;13.97;;;13.37;;
1122;SDS011;548;48.778;9.252;2022-09-03T11:59:38;13.30;;;12.80;;
1122;SDS011;548;48.778;9.252;2022-09-03T12:02:11;14.50;;;13.90;;
1122;SDS011;548;48.778;9.252;2022-09-03T12:04:45;13.37;;;12.77;;
1122;SDS011;548;48.778;9.252;2022-09-03T12:07:32;13.90;;;13.30;;
1122;SDS011;548;48.778;9.252;2022-09-03T12:10:11;13.27;;;12.67;;
1122;SDS011;548;48.778;9.252;2022-09-03T12:12:53;14.10;;;13.40;;
1122;SDS011;548;48.778;9.252;2022-09-03T12:15:30;14.50;;;13.87;;
1122;SDS011;548;48.778;9.252;2022-09-03T12:18:09;14.47;;;13.87;;
1122;SDS011;548;48.778;9.252;2022-09-03T12:20:46;13.03;;;12.40;;
1122;SDS011;548;48.778;9.252;2022-09-03T12:23:24;14.30;;;13.70;;
1122;SDS011;548;48.778;9.252;2022-09-03T12:25:54;14.40;;;13.70;;
1122;SDS011;548;48.778;9.252;2022-09-03T12:28:22;14.93;;;14.23;;
1122;SDS011;548;48.778;9.252;2022-09-03T12:30:51;14.33;;;13.73;;
1122;SDS011;548;48.778;9.252;2022-09-03T12:33:18;12.60;;;12.10;;
1122;SDS011;548;48.778;9.252;2022-09-03T12:35:56;12.60;;;12.00;;
1122;SDS011;548;48.778;9.252;2022-09-03T12:38:23;11.30;;;10.90;;
1122;SDS011;548;48.778;9.252;2022-09-03T12:40:51;12.00;;;11.50;;
1122;SDS011;548;48.778;9.252;2022-09-03T12:43:25;12.10;;;11.70;;
1122;SDS011;548;48.778;9.252;2022-09-03T12:45:53;12.30;;;11.70;;
1122;SDS011;548;48.778;9.252;2022-09-03T12:48:20;12.47;;;11.97;;
1122;SDS011;548;48.778;9.252;2022-09-03T12:50:48;11.37;;;10.90;;
1122;SDS011;548;48.778;9.252;2022-09-03T12:53:25;14.43;;;13.70;;
1122;SDS011;548;48.778;9.252;2022-09-03T12:55:56;16.33;;;15.63;;
1122;SDS011;548;48.778;9.252;2022-09-03T12:58:29;16.50;;;15.90;;
1122;SDS011;548;48.778;9.252;2022-09-03T13:01:02;20.93;;;19.93;;
1122;SDS011;548;48.778;9.252;2022-09-03T13:03:36;27.30;;;26.10;;
1122;SDS011;548;48.778;9.252;2022-09-03T13:06:12;32.47;;;30.70;;
1122;SDS011;548;48.778;9.252;2022-09-03T13:08:43;32.77;;;30.97;;
1122;SDS011;548;48.778;9.252;2022-09-03T13:11:14;33.23;;;31.30;;
1122;SDS011;548;48.778;9.252;2022-09-03T13:13:51;32.77;;;30.50;;
1122;SDS011;548;48.778;9.252;2022-09-03T13:16:25;31.80;;;29.90;;
1122;SDS011;548;48.778;9.252;2022-09-03T13:19:12;36.67;;;34.47;;
1122;SDS011;548;48.778;9.252;2022-09-03T13:21:47;36.03;;;33.93;;
1122;SDS011;548;48.778;9.252;2022-09-03T13:24:36;33.83;;;31.93;;
1122;SDS011;548;48.778;9.252;2022-09-03T13:27:23;34.53;;;32.53;;
1122;SDS011;548;48.778;9.252;2022-09-03T13:30:00;34.53;;;32.63;;
1122;SDS011;548;48.778;9.252;2022-09-03T13:32:35;34.50;;;32.80;;
1122;SDS011;548;48.778;9.252;2022-09-03T13:35:11;34.60;;;32.50;;
1122;SDS011;548;48.778;9.252;2022-09-03T13:37:44;34.80;;;32.87;;
1122;SDS011;548;48.778;9.252;2022-09-03T13:40:15;33.20;;;31.27;;
1122;SDS011;548;48.778;9.252;2022-09-03T13:42:49;33.80;;;32.00;;
1122;SDS011;548;48.778;9.252;2022-09-03T13:45:27;34.73;;;32.93;;
1122;SDS011;548;48.778;9.252;2022-09-03T13:47:58;33.40;;;31.70;;
1122;SDS011;548;48.778;9.252;2022-09-03T13:50:47;33.70;;;31.77;;
1122;SDS011;548;48.778;9.252;2022-09-03T13:53:29;34.60;;;32.87;;
1122;SDS011;548;48.778;9.252;2022-09-03T13:56:03;35.07;;;33.20;;
1122;SDS011;548;48.778;9.252;2022-09-03T13:58:42;32.80;;;31.20;;
1122;SDS011;548;48.778;9.252;2022-09-03T14:01:16;23.67;;;22.40;;
1122;SDS011;548;48.778;9.252;2022-09-03T14:03:51;22.33;;;21.33;;
1122;SDS011;548;48.778;9.252;2022-09-03T14:06:23;19.60;;;18.70;;
1122;SDS011;548;48.778;9.252;2022-09-03T14:09:05;17.00;;;16.00;;
1122;SDS011;548;48.778;9.252;2022-09-03T14:11:43;17.40;;;16.40;;
1122;SDS011;548;48.778;9.252;2022-09-03T14:14:19;15.10;;;14.50;;
1122;SDS011;548;48.778;9.252;2022-09-03T14:16:58;14.20;;;13.60;;
1122;SDS011;548;48.778;9.252;2022-09-03T14:19:32;14.80;;;14.30;;
1122;SDS011;548;48.778;9.252;2022-09-03T14:22:04;13.20;;;12.67;;
1122;SDS011;548;48.778;9.252;2022-09-03T14:24:39;14.60;;;13.90;;
1122;SDS011;548;48.778;9.252;2022-09-03T14:27:11;14.97;;;14.37;;
1122;SDS011;548;48.778;9.252;2022-09-03T14:29:48;14.37;;;13.87;;
1122;SDS011;548;48.778;9.252;2022-09-03T14:32:21;14.70;;;14.10;;
1122;SDS011;548;48.778;9.252;2022-09-03T14:35:04;15.40;;;14.80;;
1122;SDS011;548;48.778;9.252;2022-09-03T14:38:02;14.50;;;13.77;;
1122;SDS011;548;48.778;9.252;2022-09-03T14:40:54;13.77;;;13.17;;
1122;SDS011;548;48.778;9.252;2022-09-03T14:43:38;13.50;;;13.00;;
1122;SDS011;548;48.778;9.252;2022-09-03T14:46:25;13.80;;;13.30;;
1122;SDS011;548;48.778;9.252;2022-09-03T14:49:06;13.20;;;12.80;;
1122;SDS011;548;48.778;9.252;2022-09-03T14:51:55;13.20;;;12.60;;
1122;SDS011;548;48.778;9.252;2022-09-03T15:00:19;12.60;;;12.10;;
1122;SDS011;548;48.778;9.252;2022-09-03T15:03:03;12.07;;;11.57;;
1122;SDS011;548;48.778;9.252;2022-09-03T15:05:47;13.77;;;13.17;;
1122;SDS011;548;48.778;9.252;2022-09-03T15:11:13;12.70;;;12.30;;
1122;SDS011;548;48.778;9.252;2022-09-03T15:13:44;12.90;;;12.40;;
1122;SDS011;548;48.778;9.252;2022-09-03T15:16:19;13.30;;;12.80;;
1122;SDS011;548;48.778;9.252;2022-09-03T15:19:12;11.17;;;10.77;;
1122;SDS011;548;48.778;9.252;2022-09-03T15:21:56;10.87;;;10.47;;
1122;SDS011;548;48.778;9.252;2022-09-03T15:24:36;12.27;;;11.87;;
1122;SDS011;548;48.778;9.252;2022-09-03T15:27:18;12.27;;;11.87;;
1122;SDS011;548;48.778;9.252;2022-09-03T15:29:57;12.90;;;12.30;;
1122;SDS011;548;48.778;9.252;2022-09-03T15:32:36;12.80;;;12.30;;
1122;SDS011;548;48.778;9.252;2022-09-03T15:35:34;12.27;;;11.77;;
1122;SDS011;548;48.778;9.252;2022-09-03T15:38:10;12.30;;;11.87;;
1122;SDS011;548;48.778;9.252;2022-09-03T15:40:47;12.47;;;11.97;;
1122;SDS011;548;48.778;9.252;2022-09-03T15:43:18;12.53;;;12.03;;
1122;SDS011;548;48.778;9.252;2022-09-03T15:45:50;12.97;;;12.37;;
1122;SDS011;548;48.778;9.252;2022-09-03T15:48:25;12.73;;;12.23;;
1122;SDS011;548;48.778;9.252;2022-09-03T15:51:02;12.93;;;12.53;;
1122;SDS011;548;48.778;9.252;2022-09-03T15:53:38;12.67;;;12.07;;
1122;SDS011;548;48.778;9.252;2022-09-03T15:56:13;12.10;;;11.60;;
1122;SDS011;548;48.778;9.252;2022-09-03T15:58:47;12.37;;;11.87;;
1122;SDS011;548;48.778;9.252;2022-09-03T16:01:22;12.77;;;12.27;;
1122;SDS011;548;48.778;9.252;2022-09-03T16:03:57;12.70;;;12.30;;
1122;SDS011;548;48.778;9.252;2022-09-03T16:06:35;12.90;;;12.50;;
1122;SDS011;548;48.778;9.252;2022-09-03T16:09:21;12.70;;;12.30;;
1122;SDS011;548;48.778;9.252;2022-09-03T16:11:55;13.40;;;12.90;;
1122;SDS011;548;48.778;9.252;2022-09-03T16:14:33;12.50;;;12.10;;
1122;SDS011;548;48.778;9.252;2022-09-03T16:17:04;12.40;;;11.80;;
1122;SDS011;548;48.778;9.252;2022-09-03T16:19:40;12.87;;;12.40;;
1122;SDS011;548;48.778;9.252;2022-09-03T16:22:12;12.27;;;11.87;;
1122;SDS011;548;48.778;9.252;2022-09-03T16:24:46;12.50;;;12.10;;
1122;SDS011;548;48.778;9.252;2022-09-03T16:27:16;12.87;;;12.37;;
1122;SDS011;548;48.778;9.252;2022-09-03T16:29:55;13.13;;;12.63;;
1122;SDS011;548;48.778;9.252;2022-09-03T16:32:26;13.33;;;12.90;;
1122;SDS011;548;48.778;9.252;2022-09-03T16:35:07;13.27;;;12.80;;
1122;SDS011;548;48.778;9.252;2022-09-03T16:37:48;13.40;;;12.80;;
1122;SDS011;548;48.778;9.252;2022-09-03T16:40:25;13.87;;;13.33;;
1122;SDS011;548;48.778;9.252;2022-09-03T16:42:59;13.63;;;13.13;;
1122;SDS011;548;48.778;9.252;2022-09-03T16:45:33;13.40;;;12.80;;
1122;SDS011;548;48.778;9.252;2022-09-03T16:48:14;13.50;;;13.00;;
1122;SDS011;548;48.778;9.252;2022-09-03T16:50:54;13.87;;;13.17;;
1122;SDS011;548;48.778;9.252;2022-09-03T16:53:36;13.67;;;13.07;;
1122;SDS011;548;48.778;9.252;2022-09-03T16:56:40;13.73;;;13.23;;
1122;SDS011;548;48.778;9.252;2022-09-03T17:02:05;13.10;;;12.60;;
1122;SDS011;548;48.778;9.252;2022-09-03T17:04:52;13.20;;;12.50;;
1122;SDS011;548;48.778;9.252;2022-09-03T17:07:41;13.40;;;12.90;;
1122;SDS011;548;48.778;9.252;2022-09-03T17:10:22;12.80;;;12.30;;
1122;SDS011;548;48.778;9.252;2022-09-03T17:13:00;12.70;;;12.10;;
1122;SDS011;548;48.778;9.252;2022-09-03T17:15:41;13.37;;;12.97;;
1122;SDS011;548;48.778;9.252;2022-09-03T17:18:23;13.30;;;12.80;;
1122;SDS011;548;48.778;9.252;2022-09-03T17:21:04;13.37;;;12.87;;
1122;SDS011;548;48.778;9.252;2022-09-03T17:23:57;13.37;;;12.77;;
1122;SDS011;548;48.778;9.252;2022-09-03T17:26:39;13.20;;;12.70;;
1122;SDS011;548;48.778;9.252;2022-09-03T17:29:20;13.50;;;13.00;;
1122;SDS011;548;48.778;9.252;2022-09-03T17:32:02;13.43;;;12.93;;
1122;SDS011;548;48.778;9.252;2022-09-03T17:34:42;13.50;;;13.00;;
1122;SDS011;548;48.778;9.252;2022-09-03T17:37:23;14.00;;;13.20;;
1122;SDS011;548;48.778;9.252;2022-09-03T17:40:01;13.60;;;13.10;;
1122;SDS011;548;48.778;9.252;2022-09-03T17:42:39;12.83;;;12.33;;
1122;SDS011;548;48.778;9.252;2022-09-03T17:45:18;13.80;;;13.20;;
1122;SDS011;548;48.778;9.252;2022-09-03T17:50:43;13.57;;;12.97;;
1122;SDS011;548;48.778;9.252;2022-09-03T17:53:17;13.80;;;13.30;;
1122;SDS011;548;48.778;9.252;2022-09-03T17:55:51;14.40;;;13.70;;
1122;SDS011;548;48.778;9.252;2022-09-03T17:58:21;14.43;;;13.83;;
1122;SDS011;548;48.778;9.252;2022-09-03T18:00:56;14.03;;;13.53;;
1122;SDS011;548;48.778;9.252;2022-09-03T18:03:29;14.37;;;13.60;;
1122;SDS011;548;48.778;9.252;2022-09-03T18:06:05;14.70;;;13.50;;
1122;SDS011;548;48.778;9.252;2022-09-03T18:08:39;13.87;;;13.30;;
1122;SDS011;548;48.778;9.252;2022-09-03T18:11:11;14.30;;;13.70;;
1122;SDS011;548;48.778;9.252;2022-09-03T18:13:45;14.90;;;14.27;;
1122;SDS011;548;48.778;9.252;2022-09-03T18:16:17;14.90;;;14.30;;
1122;SDS011;548;48.778;9.252;2022-09-03T18:18:51;15.20;;;14.50;;
1122;SDS011;548;48.778;9.252;2022-09-03T18:21:23;15.40;;;14.80;;
1122;SDS011;548;48.778;9.252;2022-09-03T18:24:15;15.67;;;14.97;;
1122;SDS011;548;48.778;9.252;2022-09-03T18:27:07;15.10;;;14.50;;
1122;SDS011;548;48.778;9.252;2022-09-03T18:29:56;14.70;;;14.03;;
1122;SDS011;548;48.778;9.252;2022-09-03T18:32:46;15.10;;;14.40;;
1122;SDS011;548;48.778;9.252;2022-09-03T18:35:31;15.87;;;15.17;;
1122;SDS011;548;48.778;9.252;2022-09-03T18:38:17;14.80;;;14.27;;
1122;SDS011;548;48.778;9.252;2022-09-03T18:41:09;14.50;;;14.00;;
1122;SDS011;548;48.778;9.252;2022-09-03T18:44:04;17.80;;;16.80;;
1122;SDS011;548;48.778;9.252;2022-09-03T18:46:58;16.07;;;15.07;;
1122;SDS011;548;48.778;9.252;2022-09-03T18:49:52;16.23;;;15.53;;
1122;SDS011;548;48.778;9.252;2022-09-03T18:52:47;15.60;;;14.80;;
1122;SDS011;548;48.778;9.252;2022-09-03T18:55:40;15.23;;;14.43;;
1122;SDS011;548;48.778;9.252;2022-09-03T18:58:36;16.20;;;15.30;;